This is the latest recevied weather packets stored in our database for station/object KY0TEQ-13. If no packets are shown the sender has not sent any weather packets the latest 10 day(s).
| Time | Temp. | Humidity | Pressure | Rain* | Wind** | Luminosity | Snow |
|---|---|---|---|---|---|---|---|
| 1777491592 | 16.67° C | 11% | 1301.2 hPa | 0 mm | - | 782 W/m² | - |
| 1777491290 | 16.11° C | 11% | 1301.2 hPa | 0 mm | - | 792 W/m² | - |
| 1777490986 | 15.56° C | 13% | 1301.1 hPa | 0 mm | - | 778 W/m² | - |
| 1777490682 | 15° C | 12% | 1301.3 hPa | 0 mm | - | 198 W/m² | - |
| 1777490378 | 15.56° C | 15% | 1301.5 hPa | 0 mm | - | 164 W/m² | - |
| 1777490076 | 16.11° C | 15% | 1301.5 hPa | 0 mm | - | 832 W/m² | - |
| 1777489773 | 16.67° C | 14% | 1301.5 hPa | 0 mm | - | 802 W/m² | - |
| 1777489471 | 16.67° C | 13% | 1301.6 hPa | 0 mm | - | 827 W/m² | - |
| 1777489167 | 15.56° C | 14% | 1301.6 hPa | 0 mm | - | 868 W/m² | - |
| 1777488864 | 15.56° C | 14% | 1301.8 hPa | 0 mm | - | 391 W/m² | - |
| 1777488561 | 15° C | 15% | 1301.6 hPa | 0 mm | - | 887 W/m² | - |
| 1777488259 | 16.67° C | 12% | 1302 hPa | 0 mm | - | 196 W/m² | - |
| 1777487957 | 16.11° C | 13% | 1302.1 hPa | 0 mm | - | 745 W/m² | - |
| 1777487655 | 15° C | 17% | 1302 hPa | 0 mm | - | 922 W/m² | - |
| 1777487351 | 15.56° C | 16% | 1302 hPa | 0 mm | - | 929 W/m² | - |
| 1777487050 | 16.67° C | 15% | 1301.8 hPa | 0 mm | - | 852 W/m² | - |
| 1777486744 | 15° C | 18% | 1302.2 hPa | 0 mm | - | 834 W/m² | - |
| 1777486443 | 14.44° C | 18% | 1302.1 hPa | 0 mm | - | 855 W/m² | - |
| 1777486140 | 15° C | 17% | 1302.2 hPa | 0 mm | - | 186 W/m² | - |
| 1777485837 | 15° C | 19% | 1302.3 hPa | 0 mm | - | 858 W/m² | - |
| 1777485532 | 14.44° C | 18% | 1302.4 hPa | 0 mm | - | 789 W/m² | - |
| 1777485229 | 14.44° C | 18% | 1302.6 hPa | 0 mm | - | 775 W/m² | - |
| 1777484925 | 15° C | 19% | 1302.7 hPa | 0 mm | - | 753 W/m² | - |
| 1777484623 | 15° C | 18% | 1302.4 hPa | 0 mm | - | 737 W/m² | - |
| 1777484319 | 15° C | 20% | 1302.8 hPa | 0 mm | - | 728 W/m² | - |
* Rain latest hour (hover to see other rain measurements)
** Current wind speed in m/s (hover to see current wind gust speed)